createdAt,value
2018-07-05T00:00:55.759Z,23.28
2018-07-05T00:01:55.745Z,23.29
2018-07-05T00:02:55.766Z,23.26
2018-07-05T00:03:55.699Z,23.15
2018-07-05T00:04:55.673Z,23.21
2018-07-05T00:05:55.652Z,23.13
2018-07-05T00:06:55.618Z,23.17
2018-07-05T00:07:55.611Z,23.25
2018-07-05T00:08:55.584Z,23.21
2018-07-05T00:09:58.333Z,23.22
2018-07-05T00:10:57.344Z,23.22
2018-07-05T00:11:55.511Z,23.17
2018-07-05T00:12:55.486Z,23.23
2018-07-05T00:13:55.465Z,23.15
2018-07-05T00:14:55.450Z,23.23
2018-07-05T00:15:55.428Z,23.14
2018-07-05T00:17:10.104Z,23.08
2018-07-05T00:18:55.885Z,23.08
2018-07-05T00:19:55.737Z,22.99
2018-07-05T00:22:03.796Z,23.01
2018-07-05T00:23:03.667Z,22.98
2018-07-05T00:25:14.423Z,23.01
2018-07-05T00:26:14.626Z,22.96
2018-07-05T00:28:18.987Z,22.98
2018-07-05T00:29:18.771Z,22.88
2018-07-05T00:31:23.119Z,22.89
2018-07-05T00:32:43.208Z,22.83
2018-07-05T00:34:30.936Z,22.86
2018-07-05T00:35:30.903Z,22.73
2018-07-05T00:37:41.286Z,22.62
2018-07-05T00:38:41.278Z,22.52
2018-07-05T00:40:57.141Z,22.44
2018-07-05T00:41:57.146Z,22.40
2018-07-05T00:44:01.485Z,22.34
2018-07-05T00:45:34.646Z,22.38
2018-07-05T00:47:05.916Z,22.31
2018-07-05T00:48:05.804Z,22.31
2018-07-05T00:50:10.948Z,22.30
2018-07-05T00:51:10.944Z,22.27
2018-07-05T00:53:14.379Z,22.23
2018-07-05T00:54:14.320Z,22.36
2018-07-05T00:56:24.708Z,22.28
2018-07-05T00:57:24.594Z,22.22
2018-07-05T00:59:30.487Z,22.36
2018-07-05T01:00:30.467Z,22.38
2018-07-05T01:02:46.474Z,22.40
2018-07-05T01:03:46.360Z,22.33
2018-07-05T01:05:49.773Z,22.37
2018-07-05T01:06:49.644Z,22.33
2018-07-05T01:08:53.138Z,22.36
2018-07-05T01:09:52.957Z,22.41
2018-07-05T01:11:56.343Z,22.30
2018-07-05T01:12:56.345Z,22.33
2018-07-05T01:14:59.162Z,22.28
2018-07-05T01:15:59.140Z,22.30
2018-07-05T01:18:05.167Z,22.30
2018-07-05T01:19:05.225Z,22.25
2018-07-05T01:21:15.595Z,22.11
2018-07-05T01:22:15.457Z,22.06
2018-07-05T01:24:20.301Z,22.03
2018-07-05T01:25:20.204Z,22.04
2018-07-05T01:26:20.243Z,22.04
2018-07-05T01:27:20.123Z,22.06
2018-07-05T01:28:20.094Z,22.07
2018-07-05T01:29:20.098Z,22.07
2018-07-05T01:30:20.052Z,22.01
2018-07-05T01:31:20.020Z,22.09
2018-07-05T01:32:20.050Z,21.93
2018-07-05T01:33:21.843Z,21.98
2018-07-05T01:34:19.949Z,21.91
2018-07-05T01:35:19.925Z,21.82
2018-07-05T01:36:19.901Z,21.84
2018-07-05T01:37:19.883Z,21.82
2018-07-05T01:38:21.830Z,21.84
2018-07-05T01:39:19.854Z,21.90
2018-07-05T01:40:19.816Z,21.82
2018-07-05T01:41:19.796Z,21.91
2018-07-05T01:42:19.767Z,21.81
2018-07-05T01:43:19.737Z,21.88
2018-07-05T01:44:19.718Z,21.74
2018-07-05T01:45:19.715Z,21.78
2018-07-05T01:46:19.684Z,21.80
2018-07-05T01:47:19.652Z,21.81
2018-07-05T01:48:19.631Z,21.80
2018-07-05T01:49:19.603Z,21.67
2018-07-05T01:50:19.585Z,21.73
2018-07-05T01:51:19.555Z,21.73
2018-07-05T01:52:19.528Z,21.66
2018-07-05T01:53:19.514Z,21.63
2018-07-05T01:54:19.479Z,21.66
2018-07-05T01:55:19.472Z,21.55
2018-07-05T01:56:19.432Z,21.62
2018-07-05T01:57:21.336Z,21.62
2018-07-05T01:58:19.395Z,21.62
2018-07-05T01:59:19.389Z,21.58
2018-07-05T02:00:19.340Z,21.44
2018-07-05T02:01:19.321Z,21.56
2018-07-05T02:02:20.884Z,21.65
2018-07-05T02:03:19.262Z,21.62
2018-07-05T02:04:19.245Z,21.56
2018-07-05T02:05:39.012Z,21.62
2018-07-05T02:07:23.646Z,21.77
2018-07-05T02:08:23.590Z,21.69
2018-07-05T02:10:23.959Z,21.66
2018-07-05T02:11:23.955Z,21.66
2018-07-05T02:13:26.813Z,21.73
2018-07-05T02:14:26.727Z,21.71
2018-07-05T02:16:33.120Z,21.63
2018-07-05T02:17:33.025Z,21.71
2018-07-05T02:19:37.442Z,21.67
2018-07-05T02:20:37.375Z,21.71
2018-07-05T02:22:47.769Z,21.75
2018-07-05T02:23:47.705Z,21.73
2018-07-05T02:26:03.654Z,21.69
2018-07-05T02:27:03.514Z,21.73
2018-07-05T02:29:09.442Z,21.66
2018-07-05T02:30:09.450Z,21.66
2018-07-05T02:32:13.832Z,21.74
2018-07-05T02:33:13.748Z,21.69
2018-07-05T02:35:19.091Z,21.75
2018-07-05T02:36:19.094Z,21.81
2018-07-05T02:38:23.330Z,21.78
2018-07-05T02:39:23.338Z,21.78
2018-07-05T02:41:26.744Z,21.90
2018-07-05T02:42:26.738Z,21.88
2018-07-05T02:44:34.749Z,21.94
2018-07-05T02:45:34.484Z,21.94
2018-07-05T02:47:53.318Z,21.88
2018-07-05T02:48:53.325Z,21.94
2018-07-05T02:51:03.836Z,21.90
2018-07-05T02:52:03.677Z,21.84
2018-07-05T02:54:08.075Z,21.80
2018-07-05T02:55:25.194Z,21.74
2018-07-05T02:57:13.869Z,21.77
2018-07-05T02:58:13.829Z,21.65
2018-07-05T03:00:16.842Z,21.63
2018-07-05T03:01:16.638Z,21.59
2018-07-05T03:03:32.780Z,21.62
2018-07-05T03:04:32.700Z,21.62
2018-07-05T03:06:27.128Z,21.56
2018-07-05T03:07:26.991Z,21.59
2018-07-05T03:09:27.689Z,21.63
2018-07-05T03:10:27.660Z,21.59
2018-07-05T03:12:31.021Z,21.60
2018-07-05T03:13:30.913Z,21.58
2018-07-05T03:15:35.332Z,21.62
2018-07-05T03:16:35.224Z,21.63
2018-07-05T03:18:38.152Z,21.62
2018-07-05T03:19:38.147Z,21.60
2018-07-05T03:21:54.012Z,21.48
2018-07-05T03:22:53.937Z,21.47
2018-07-05T03:24:56.789Z,21.48
2018-07-05T03:25:56.775Z,21.45
2018-07-05T03:28:01.165Z,21.47
2018-07-05T03:29:01.116Z,21.47
2018-07-05T03:31:06.425Z,21.58
2018-07-05T03:32:06.363Z,21.65
2018-07-05T03:34:34.274Z,21.65
2018-07-05T03:35:34.250Z,21.58
2018-07-05T03:37:38.670Z,21.59
2018-07-05T03:38:38.628Z,21.59
2018-07-05T03:40:55.515Z,21.63
2018-07-05T03:41:55.426Z,21.62
2018-07-05T03:44:01.360Z,21.62
2018-07-05T03:45:01.304Z,21.56
2018-07-05T03:47:09.146Z,21.60
2018-07-05T03:48:23.227Z,21.53
2018-07-05T03:50:12.033Z,21.48
2018-07-05T03:51:11.907Z,21.50
2018-07-05T03:53:30.811Z,21.51
2018-07-05T03:54:30.743Z,21.51
2018-07-05T03:56:39.307Z,21.44
2018-07-05T03:57:38.604Z,21.48
2018-07-05T03:59:46.522Z,21.29
2018-07-05T04:00:46.446Z,21.32
2018-07-05T04:02:54.309Z,21.37
2018-07-05T04:03:54.361Z,21.37
2018-07-05T04:05:58.761Z,21.44
2018-07-05T04:06:58.625Z,21.50
2018-07-05T04:09:07.521Z,21.45
2018-07-05T04:10:07.466Z,21.44
2018-07-05T04:12:13.468Z,21.56
2018-07-05T04:13:13.314Z,21.59
2018-07-05T04:15:19.170Z,21.56
2018-07-05T04:16:19.177Z,21.60
2018-07-05T04:18:25.112Z,21.63
2018-07-05T04:19:25.019Z,21.62
2018-07-05T04:21:30.220Z,21.59
2018-07-05T04:22:30.040Z,21.63
2018-07-05T04:24:35.912Z,21.67
2018-07-05T04:25:35.843Z,21.69
2018-07-05T04:27:40.216Z,21.63
2018-07-05T04:28:40.220Z,21.69
2018-07-05T04:30:43.015Z,21.59
2018-07-05T04:31:42.962Z,21.53
2018-07-05T04:33:50.920Z,21.62
2018-07-05T04:34:50.813Z,21.60
2018-07-05T04:36:53.757Z,21.73
2018-07-05T04:37:53.618Z,21.67
2018-07-05T04:40:04.063Z,21.66
2018-07-05T04:41:03.945Z,21.74
2018-07-05T04:43:08.358Z,21.80
2018-07-05T04:44:08.252Z,21.78
2018-07-05T04:46:11.762Z,21.81
2018-07-05T04:47:11.650Z,21.82
2018-07-05T04:49:27.539Z,21.97
2018-07-05T04:50:27.520Z,22.03
2018-07-05T04:52:40.866Z,22.11
2018-07-05T04:53:40.773Z,22.06
2018-07-05T04:55:47.721Z,22.04
2018-07-05T04:56:47.712Z,22.06
2018-07-05T04:59:00.634Z,21.98
2018-07-05T05:00:00.449Z,22.03
2018-07-05T05:02:13.327Z,22.01
2018-07-05T05:03:13.434Z,21.98
2018-07-05T05:05:36.122Z,21.97
2018-07-05T05:06:36.145Z,22.01
2018-07-05T05:08:37.553Z,22.09
2018-07-05T05:09:36.551Z,22.11
2018-07-05T05:11:46.913Z,22.16
2018-07-05T05:12:46.808Z,22.13
2018-07-05T05:14:49.824Z,22.18
2018-07-05T05:15:49.639Z,22.09
2018-07-05T05:17:54.678Z,22.15
2018-07-05T05:18:54.675Z,22.13
2018-07-05T05:19:54.641Z,22.21
2018-07-05T05:20:56.523Z,22.15
2018-07-05T05:21:54.538Z,22.22
2018-07-05T05:22:54.505Z,22.25
2018-07-05T05:23:54.482Z,22.30
2018-07-05T05:24:57.114Z,22.15
2018-07-05T05:25:54.439Z,22.28
2018-07-05T05:26:54.412Z,22.30
2018-07-05T05:27:54.383Z,22.28
2018-07-05T05:28:54.355Z,22.25
2018-07-05T05:29:54.402Z,22.23
2018-07-05T05:30:54.315Z,22.30
2018-07-05T05:31:54.305Z,22.19
2018-07-05T05:32:54.282Z,22.11
2018-07-05T05:33:54.317Z,22.23
2018-07-05T05:34:54.230Z,22.23
2018-07-05T05:35:54.202Z,22.19
2018-07-05T05:36:54.185Z,22.28
2018-07-05T05:37:54.148Z,22.25
2018-07-05T05:38:54.153Z,22.18
2018-07-05T05:39:54.181Z,22.09
2018-07-05T05:40:54.124Z,22.22
2018-07-05T05:41:54.113Z,22.22
2018-07-05T05:42:54.100Z,22.23
2018-07-05T05:43:54.080Z,22.27
2018-07-05T05:44:53.995Z,22.27
2018-07-05T05:45:54.009Z,22.25
2018-07-05T05:46:53.955Z,22.13
2018-07-05T05:47:53.925Z,22.16
2018-07-05T05:48:53.900Z,22.07
2018-07-05T05:49:53.884Z,22.03
2018-07-05T05:50:53.855Z,22.00
2018-07-05T05:51:53.825Z,21.98
2018-07-05T05:52:53.807Z,22.09
2018-07-05T05:53:53.780Z,22.09
2018-07-05T05:54:53.753Z,22.04
2018-07-05T05:55:53.828Z,22.09
2018-07-05T05:56:53.755Z,22.16
2018-07-05T05:57:53.687Z,22.19
2018-07-05T05:58:53.659Z,22.15
2018-07-05T05:59:53.640Z,22.15
2018-07-05T06:00:53.622Z,22.28
2018-07-05T06:01:53.682Z,22.12
2018-07-05T06:02:53.575Z,22.22
2018-07-05T06:03:53.539Z,22.25
2018-07-05T06:04:53.517Z,22.21
2018-07-05T06:05:53.518Z,22.22
2018-07-05T06:06:53.483Z,22.28
2018-07-05T06:07:53.449Z,22.21
2018-07-05T06:08:53.443Z,22.22
2018-07-05T06:09:53.400Z,22.25
2018-07-05T06:10:53.375Z,22.22
2018-07-05T06:11:53.351Z,22.25
2018-07-05T06:12:53.331Z,22.22
2018-07-05T06:13:55.004Z,22.22
2018-07-05T06:14:53.284Z,22.28
2018-07-05T06:15:53.269Z,22.23
2018-07-05T06:16:53.239Z,22.30
2018-07-05T06:17:53.212Z,22.31
2018-07-05T06:18:53.253Z,22.33
2018-07-05T06:19:53.171Z,22.43
2018-07-05T06:20:53.151Z,22.44
2018-07-05T06:21:53.120Z,22.34
2018-07-05T06:22:53.092Z,22.28
2018-07-05T06:23:53.069Z,22.30
2018-07-05T06:24:53.057Z,22.37
2018-07-05T06:25:53.028Z,22.37
2018-07-05T06:26:53.007Z,22.43
2018-07-05T06:27:52.983Z,22.55
2018-07-05T06:28:52.995Z,22.58
2018-07-05T06:29:52.936Z,22.68
2018-07-05T06:30:52.929Z,22.66
2018-07-05T06:31:52.887Z,22.76
2018-07-05T06:32:52.864Z,22.74
2018-07-05T06:33:52.847Z,22.86
2018-07-05T06:34:52.820Z,22.85
2018-07-05T06:35:52.792Z,22.77
2018-07-05T06:36:52.778Z,22.77
2018-07-05T06:37:52.760Z,22.74
2018-07-05T06:38:52.737Z,22.76
2018-07-05T06:39:52.706Z,22.70
2018-07-05T06:40:52.677Z,22.77
2018-07-05T06:41:52.658Z,22.61
2018-07-05T06:42:52.634Z,22.48
2018-07-05T06:43:52.607Z,22.53
2018-07-05T06:44:52.627Z,22.44
2018-07-05T06:45:52.561Z,22.33
2018-07-05T06:46:52.542Z,22.41
2018-07-05T06:47:52.528Z,22.44
2018-07-05T06:48:52.492Z,22.46
2018-07-05T06:49:52.470Z,22.56
2018-07-05T06:50:52.450Z,22.70
2018-07-05T06:51:52.434Z,22.77
2018-07-05T06:52:52.426Z,22.70
2018-07-05T06:53:52.391Z,22.70
2018-07-05T06:54:52.354Z,22.67
2018-07-05T06:55:52.326Z,22.76
2018-07-05T06:56:52.305Z,22.83
2018-07-05T06:57:52.289Z,22.85
2018-07-05T06:58:52.266Z,22.80
2018-07-05T06:59:52.279Z,22.80
2018-07-05T07:00:52.219Z,22.95
2018-07-05T07:01:52.193Z,22.93
2018-07-05T07:02:52.178Z,22.99
2018-07-05T07:03:52.142Z,22.91
2018-07-05T07:04:52.132Z,22.92
2018-07-05T07:05:52.122Z,22.81
2018-07-05T07:06:52.080Z,22.81
2018-07-05T07:07:52.052Z,22.95
2018-07-05T07:08:52.043Z,23.04
2018-07-05T07:09:52.011Z,23.08
2018-07-05T07:10:51.996Z,23.04
2018-07-05T07:11:51.969Z,23.10
2018-07-05T07:12:51.952Z,23.08
2018-07-05T07:13:51.919Z,23.14
2018-07-05T07:14:51.897Z,23.08
2018-07-05T07:15:51.871Z,23.26
2018-07-05T07:16:51.855Z,23.34
2018-07-05T07:17:51.825Z,23.29
2018-07-05T07:18:51.801Z,23.28
2018-07-05T07:19:51.785Z,23.33
2018-07-05T07:20:53.503Z,23.23
2018-07-05T07:21:51.737Z,23.23
2018-07-05T07:22:51.711Z,23.23
2018-07-05T07:23:51.717Z,23.23
2018-07-05T07:24:51.667Z,23.29
2018-07-05T07:25:51.642Z,23.31
2018-07-05T07:26:51.619Z,23.23
2018-07-05T07:27:51.603Z,23.14
2018-07-05T07:28:51.586Z,23.10
2018-07-05T07:29:51.558Z,23.18
2018-07-05T07:30:54.521Z,23.28
2018-07-05T07:31:51.638Z,23.45
2018-07-05T07:32:51.485Z,23.48
2018-07-05T07:33:51.468Z,23.56
2018-07-05T07:34:51.460Z,23.45
2018-07-05T07:35:51.430Z,23.67
2018-07-05T07:36:51.395Z,23.45
2018-07-05T07:37:51.377Z,23.41
2018-07-05T07:38:51.353Z,23.45
2018-07-05T07:39:51.324Z,23.56
2018-07-05T07:40:51.305Z,23.51
2018-07-05T07:41:51.283Z,23.49
2018-07-05T07:42:51.266Z,23.59
2018-07-05T07:43:51.240Z,23.60
2018-07-05T07:45:08.494Z,23.49
2018-07-05T07:46:45.728Z,23.60
2018-07-05T07:47:45.594Z,23.61
2018-07-05T07:50:10.691Z,23.60
2018-07-05T07:51:10.470Z,23.45
2018-07-05T07:53:13.908Z,23.45
2018-07-05T07:54:13.786Z,23.29
2018-07-05T07:56:22.398Z,23.36
2018-07-05T07:57:21.614Z,23.36
2018-07-05T07:59:52.511Z,23.66
2018-07-05T08:00:52.427Z,23.86
2018-07-05T08:02:56.863Z,23.85
2018-07-05T08:03:56.776Z,23.82
2018-07-05T08:05:57.171Z,23.86
2018-07-05T08:06:57.106Z,23.85
2018-07-05T08:09:02.976Z,24.13
2018-07-05T08:10:02.944Z,24.03
2018-07-05T08:11:59.429Z,24.29
2018-07-05T08:12:58.990Z,24.28
2018-07-05T08:15:02.373Z,24.44
2018-07-05T08:16:02.389Z,24.48
2018-07-05T08:18:12.871Z,24.60
2018-07-05T08:19:12.812Z,24.65
2018-07-05T08:21:23.014Z,24.96
2018-07-05T08:22:22.983Z,25.06
2018-07-05T08:24:26.104Z,25.15
2018-07-05T08:25:25.811Z,25.19
2018-07-05T08:27:33.806Z,24.93
2018-07-05T08:28:33.775Z,24.79
2018-07-05T08:30:39.669Z,24.62
2018-07-05T08:31:39.560Z,24.74
2018-07-05T08:33:43.033Z,24.63
2018-07-05T08:34:42.875Z,24.65
2018-07-05T08:36:48.827Z,24.58
2018-07-05T08:37:48.788Z,24.48
2018-07-05T08:39:42.128Z,24.59
2018-07-05T08:40:42.059Z,24.62
2018-07-05T08:42:46.006Z,24.60
2018-07-05T08:43:45.949Z,24.62
2018-07-05T08:45:52.023Z,24.75
2018-07-05T08:46:51.961Z,24.74
2018-07-05T08:48:56.423Z,24.36
2018-07-05T08:49:56.282Z,24.43
2018-07-05T08:50:56.273Z,24.45
2018-07-05T08:51:56.293Z,24.55
2018-07-05T08:52:56.464Z,24.56
2018-07-05T08:53:56.192Z,24.62
2018-07-05T08:54:56.181Z,24.75
2018-07-05T08:55:56.149Z,24.40
2018-07-05T08:56:56.127Z,24.52
2018-07-05T08:58:08.477Z,24.38
2018-07-05T09:00:00.641Z,24.51
2018-07-05T09:01:00.595Z,24.68
2018-07-05T09:03:16.333Z,24.86
2018-07-05T09:04:16.346Z,24.84
2018-07-05T09:06:19.825Z,24.82
2018-07-05T09:07:19.606Z,24.74
2018-07-05T09:09:22.589Z,24.90
2018-07-05T09:10:22.600Z,25.03
2018-07-05T09:12:53.560Z,24.91
2018-07-05T09:13:53.437Z,24.99
2018-07-05T09:15:57.800Z,25.30
2018-07-05T09:16:57.856Z,24.99
2018-07-05T09:19:03.691Z,25.21
2018-07-05T09:20:03.619Z,25.31
2018-07-05T09:22:02.732Z,25.37
2018-07-05T09:23:02.650Z,25.43
2018-07-05T09:24:02.656Z,25.45
2018-07-05T09:25:02.756Z,25.52
2018-07-05T09:26:02.555Z,25.64
2018-07-05T09:27:02.537Z,25.73
2018-07-05T09:28:02.498Z,25.51
2018-07-05T09:29:02.483Z,25.55
2018-07-05T09:30:02.487Z,25.64
2018-07-05T09:31:02.485Z,25.71
2018-07-05T09:32:04.033Z,25.37
2018-07-05T09:33:02.397Z,25.27
2018-07-05T09:34:02.408Z,25.30
2018-07-05T09:35:02.406Z,25.46
2018-07-05T09:36:02.348Z,25.63
2018-07-05T09:37:02.381Z,25.93
2018-07-05T09:38:02.296Z,26.00
2018-07-05T09:39:02.269Z,26.07
2018-07-05T09:40:02.253Z,25.86
2018-07-05T09:41:02.229Z,25.89
2018-07-05T09:42:02.263Z,25.83
2018-07-05T09:43:02.186Z,26.07
2018-07-05T09:44:02.173Z,26.41
2018-07-05T09:45:02.152Z,26.46
2018-07-05T09:46:02.166Z,26.24
2018-07-05T09:47:02.188Z,26.30
2018-07-05T09:48:02.088Z,26.48
2018-07-05T09:49:02.069Z,26.49
2018-07-05T09:50:02.059Z,26.39
2018-07-05T09:51:02.032Z,26.43
2018-07-05T09:52:02.003Z,26.45
2018-07-05T09:53:02.021Z,26.64
2018-07-05T09:54:01.968Z,26.71
2018-07-05T09:55:01.973Z,26.80
2018-07-05T09:56:01.954Z,27.08
2018-07-05T09:57:01.908Z,27.44
2018-07-05T09:58:01.901Z,27.63
2018-07-05T09:59:01.864Z,27.70
2018-07-05T10:00:01.860Z,27.83
2018-07-05T10:01:01.837Z,27.42
2018-07-05T10:02:01.808Z,27.42
2018-07-05T10:03:01.796Z,27.63
2018-07-05T10:04:01.801Z,27.38
2018-07-05T10:05:01.827Z,27.63
2018-07-05T10:06:01.744Z,27.93
2018-07-05T10:07:01.713Z,28.07
2018-07-05T10:08:01.724Z,27.95
2018-07-05T10:09:01.686Z,27.82
2018-07-05T10:10:01.658Z,27.58
2018-07-05T10:11:01.635Z,27.49
2018-07-05T10:12:03.499Z,27.19
2018-07-05T10:13:01.782Z,27.04
2018-07-05T10:14:01.587Z,26.80
2018-07-05T10:15:01.626Z,26.83
2018-07-05T10:16:01.559Z,26.64
2018-07-05T10:17:01.525Z,26.80
2018-07-05T10:18:01.496Z,26.90
2018-07-05T10:19:01.491Z,26.90
2018-07-05T10:20:01.476Z,26.85
2018-07-05T10:21:01.456Z,26.90
2018-07-05T10:22:01.437Z,27.17
2018-07-05T10:23:01.443Z,27.17
2018-07-05T10:24:01.399Z,27.25
2018-07-05T10:25:01.378Z,27.38
2018-07-05T10:26:01.346Z,27.45
2018-07-05T10:27:01.391Z,27.42
2018-07-05T10:28:01.310Z,27.45
2018-07-05T10:29:01.312Z,27.60
2018-07-05T10:30:01.299Z,27.75
2018-07-05T10:31:01.256Z,27.52
2018-07-05T10:32:01.236Z,27.20
2018-07-05T10:33:01.256Z,27.00
2018-07-05T10:34:01.206Z,26.89
2018-07-05T10:35:01.185Z,27.16
2018-07-05T10:36:01.158Z,27.38
2018-07-05T10:37:01.155Z,27.22
2018-07-05T10:38:01.126Z,27.07
2018-07-05T10:39:01.112Z,27.19
2018-07-05T10:40:01.101Z,27.31
2018-07-05T10:41:01.089Z,27.30
2018-07-05T10:42:01.064Z,27.52
2018-07-05T10:43:01.033Z,27.45
2018-07-05T10:44:01.012Z,27.61
2018-07-05T10:45:01.045Z,27.61
2018-07-05T10:46:01.088Z,27.42
2018-07-05T10:47:01.006Z,27.54
2018-07-05T10:48:00.937Z,27.61
2018-07-05T10:49:00.929Z,27.70
2018-07-05T10:50:00.932Z,27.64
2018-07-05T10:51:15.681Z,27.94
2018-07-05T10:53:04.789Z,27.87
2018-07-05T10:54:04.715Z,27.70
2018-07-05T10:56:10.621Z,27.83
2018-07-05T10:57:10.558Z,27.97
2018-07-05T10:59:18.579Z,28.13
2018-07-05T11:00:18.531Z,27.98
2018-07-05T11:02:29.903Z,28.00
2018-07-05T11:03:29.796Z,28.03
2018-07-05T11:05:36.293Z,28.00
2018-07-05T11:06:35.887Z,28.30
2018-07-05T11:08:40.307Z,28.35
2018-07-05T11:09:40.201Z,28.28
2018-07-05T11:11:59.181Z,28.09
2018-07-05T11:12:59.088Z,28.05
2018-07-05T11:15:03.480Z,27.97
2018-07-05T11:16:03.434Z,28.10
2018-07-05T11:18:07.851Z,28.10
2018-07-05T11:19:07.732Z,28.20
2018-07-05T11:21:15.641Z,28.19
2018-07-05T11:22:15.680Z,28.10
2018-07-05T11:24:28.479Z,27.94
2018-07-05T11:25:28.485Z,28.01
2018-07-05T11:27:34.423Z,27.83
2018-07-05T11:28:34.353Z,27.78
2018-07-05T11:30:42.259Z,27.75
2018-07-05T11:31:42.132Z,27.70
2018-07-05T11:33:45.484Z,27.70
2018-07-05T11:34:45.457Z,27.73
2018-07-05T11:36:41.522Z,27.66
2018-07-05T11:37:41.325Z,27.73
2018-07-05T11:39:44.836Z,27.70
2018-07-05T11:40:44.692Z,28.01
2018-07-05T11:42:50.726Z,28.22
2018-07-05T11:43:50.519Z,28.27
2018-07-05T11:45:53.934Z,28.37
2018-07-05T11:46:53.917Z,28.47
2018-07-05T11:49:12.828Z,28.19
2018-07-05T11:50:12.931Z,28.43
2018-07-05T11:52:20.631Z,28.62
2018-07-05T11:53:20.545Z,29.00
2018-07-05T11:55:23.432Z,29.25
2018-07-05T11:56:23.396Z,29.49
2018-07-05T11:58:26.860Z,30.28
2018-07-05T11:59:26.690Z,30.58
2018-07-05T12:01:27.144Z,31.24
2018-07-05T12:02:27.065Z,31.38
2018-07-05T12:04:30.499Z,30.39
2018-07-05T12:05:30.392Z,30.05
2018-07-05T12:07:38.260Z,29.83
2018-07-05T12:08:38.290Z,30.17
2018-07-05T12:10:32.580Z,30.48
2018-07-05T12:11:32.586Z,30.49
2018-07-05T12:13:51.460Z,31.05
2018-07-05T12:14:51.540Z,31.32
2018-07-05T12:16:56.504Z,31.44
2018-07-05T12:17:56.472Z,31.39
2018-07-05T12:20:00.438Z,31.56
2018-07-05T12:21:00.177Z,31.01
2018-07-05T12:23:28.074Z,31.54
2018-07-05T12:24:28.047Z,31.79
2018-07-05T12:26:35.967Z,32.01
2018-07-05T12:27:35.873Z,32.32
2018-07-05T12:29:44.796Z,33.06
2018-07-05T12:30:44.719Z,33.39
2018-07-05T12:32:47.417Z,32.80
2018-07-05T12:33:47.265Z,31.91
2018-07-05T12:34:47.295Z,31.68
2018-07-05T12:35:47.229Z,31.52
2018-07-05T12:36:47.210Z,31.48
2018-07-05T12:37:47.205Z,31.78
2018-07-05T12:38:47.190Z,31.51
2018-07-05T12:39:47.175Z,31.22
2018-07-05T12:40:47.161Z,30.52
2018-07-05T12:41:47.146Z,30.39
2018-07-05T12:42:47.129Z,30.49
2018-07-05T12:43:47.134Z,30.22
2018-07-05T12:44:47.115Z,30.37
2018-07-05T12:45:47.096Z,30.96
2018-07-05T12:46:47.089Z,31.44
2018-07-05T12:47:47.076Z,31.46
2018-07-05T12:48:47.082Z,31.70
2018-07-05T12:49:47.047Z,31.45
2018-07-05T12:50:47.019Z,31.38
2018-07-05T12:51:47.033Z,31.22
2018-07-05T12:52:47.011Z,30.49
2018-07-05T12:53:46.986Z,30.33
2018-07-05T12:54:47.004Z,30.03
2018-07-05T12:55:46.958Z,30.35
2018-07-05T12:56:46.931Z,30.53
2018-07-05T12:57:46.926Z,30.75
2018-07-05T12:58:46.917Z,30.59
2018-07-05T12:59:46.898Z,30.70
2018-07-05T13:00:47.016Z,31.22
2018-07-05T13:01:46.859Z,31.26
2018-07-05T13:02:46.851Z,30.71
2018-07-05T13:03:46.860Z,30.59
2018-07-05T13:04:46.849Z,30.51
2018-07-05T13:05:46.808Z,30.46
2018-07-05T13:06:46.796Z,30.48
2018-07-05T13:07:46.803Z,30.97
2018-07-05T13:08:46.757Z,31.42
2018-07-05T13:09:46.750Z,31.24
2018-07-05T13:10:46.729Z,31.02
2018-07-05T13:11:46.713Z,30.97
2018-07-05T13:12:46.741Z,31.12
2018-07-05T13:13:46.688Z,31.10
2018-07-05T13:14:46.665Z,30.59
2018-07-05T13:15:46.656Z,30.29
2018-07-05T13:16:48.160Z,30.26
2018-07-05T13:17:46.637Z,30.26
2018-07-05T13:18:46.609Z,30.20
2018-07-05T13:19:46.597Z,30.26
2018-07-05T13:20:46.591Z,30.53
2018-07-05T13:21:46.591Z,30.37
2018-07-05T13:22:46.611Z,30.40
2018-07-05T13:23:46.533Z,30.60
2018-07-05T13:24:46.526Z,30.80
2018-07-05T13:25:46.518Z,30.39
2018-07-05T13:26:46.495Z,30.52
2018-07-05T13:27:46.466Z,30.35
2018-07-05T13:28:46.464Z,30.52
2018-07-05T13:29:46.443Z,30.26
2018-07-05T13:30:46.435Z,30.45
2018-07-05T13:31:46.430Z,31.32
2018-07-05T13:32:46.398Z,31.20
2018-07-05T13:33:46.380Z,31.23
2018-07-05T13:34:46.370Z,31.42
2018-07-05T13:35:46.350Z,31.71
2018-07-05T13:36:46.337Z,32.23
2018-07-05T13:37:46.319Z,32.73
2018-07-05T13:38:46.339Z,32.91
2018-07-05T13:39:46.317Z,32.73
2018-07-05T13:40:46.278Z,32.16
2018-07-05T13:41:46.264Z,32.11
2018-07-05T13:42:46.252Z,31.87
2018-07-05T13:43:46.243Z,32.02
2018-07-05T13:44:46.232Z,32.31
2018-07-05T13:45:46.234Z,32.13
2018-07-05T13:46:46.202Z,32.13
2018-07-05T13:47:46.203Z,32.06
2018-07-05T13:48:46.170Z,31.90
2018-07-05T13:49:46.162Z,31.51
2018-07-05T13:50:46.152Z,31.26
2018-07-05T13:51:46.128Z,31.46
2018-07-05T13:52:46.116Z,31.56
2018-07-05T13:53:46.096Z,31.57
2018-07-05T13:54:46.091Z,31.71
2018-07-05T13:55:46.077Z,31.71
2018-07-05T13:56:46.060Z,31.82
2018-07-05T13:57:46.050Z,31.54
2018-07-05T13:58:46.024Z,30.86
2018-07-05T13:59:46.012Z,30.29
2018-07-05T14:00:46.009Z,30.37
2018-07-05T14:01:45.988Z,31.01
2018-07-05T14:02:45.972Z,31.49
2018-07-05T14:03:45.969Z,31.97
2018-07-05T14:04:45.945Z,31.91
2018-07-05T14:05:45.934Z,31.42
2018-07-05T14:06:45.938Z,31.45
2018-07-05T14:07:45.910Z,31.12
2018-07-05T14:08:45.944Z,31.37
2018-07-05T14:09:45.885Z,31.45
2018-07-05T14:10:45.863Z,31.23
2018-07-05T14:11:45.856Z,31.54
2018-07-05T14:12:45.833Z,31.46
2018-07-05T14:13:45.821Z,31.45
2018-07-05T14:14:45.809Z,30.89
2018-07-05T14:15:45.818Z,30.95
2018-07-05T14:16:45.782Z,31.30
2018-07-05T14:17:45.758Z,30.65
2018-07-05T14:18:45.799Z,30.74
2018-07-05T14:19:45.730Z,31.15
2018-07-05T14:20:45.737Z,31.51
2018-07-05T14:21:45.713Z,31.75
2018-07-05T14:22:45.693Z,31.41
2018-07-05T14:23:45.693Z,31.75
2018-07-05T14:24:45.753Z,32.02
2018-07-05T14:25:45.652Z,32.76
2018-07-05T14:26:45.637Z,32.88
2018-07-05T14:27:45.626Z,33.29
2018-07-05T14:28:45.624Z,33.27
2018-07-05T14:29:45.600Z,33.26
2018-07-05T14:30:45.582Z,32.70
2018-07-05T14:31:45.564Z,32.95
2018-07-05T14:32:45.554Z,32.85
2018-07-05T14:33:45.558Z,32.87
2018-07-05T14:34:45.535Z,32.45
2018-07-05T14:35:45.524Z,32.23
2018-07-05T14:36:45.511Z,31.70
2018-07-05T14:37:45.494Z,32.04
2018-07-05T14:38:45.582Z,31.54
2018-07-05T14:39:45.465Z,31.23
2018-07-05T14:40:45.459Z,31.02
2018-07-05T14:41:45.445Z,30.43
2018-07-05T14:42:45.433Z,30.33
2018-07-05T14:43:45.466Z,30.85
2018-07-05T14:44:45.430Z,31.02
2018-07-05T14:45:45.395Z,31.22
2018-07-05T14:46:45.383Z,31.27
2018-07-05T14:47:45.374Z,31.08
2018-07-05T14:48:45.393Z,31.39
2018-07-05T14:49:45.340Z,32.28
2018-07-05T14:50:45.319Z,31.66
2018-07-05T14:51:45.304Z,32.26
2018-07-05T14:52:45.290Z,31.64
2018-07-05T14:53:45.312Z,31.27
2018-07-05T14:54:45.271Z,31.29
2018-07-05T14:55:45.262Z,30.93
2018-07-05T14:56:45.253Z,30.53
2018-07-05T14:57:45.231Z,30.51
2018-07-05T14:58:45.228Z,30.70
2018-07-05T14:59:45.203Z,30.83
2018-07-05T15:00:46.688Z,30.51
2018-07-05T15:01:45.193Z,31.23
2018-07-05T15:02:45.158Z,31.46
2018-07-05T15:03:45.142Z,31.07
2018-07-05T15:04:45.142Z,31.04
2018-07-05T15:05:45.116Z,31.91
2018-07-05T15:06:45.106Z,33.01
2018-07-05T15:07:45.100Z,33.22
2018-07-05T15:08:45.085Z,33.35
2018-07-05T15:09:45.063Z,33.62
2018-07-05T15:10:45.046Z,32.77
2018-07-05T15:11:45.031Z,32.24
2018-07-05T15:12:45.033Z,31.23
2018-07-05T15:13:45.014Z,30.67
2018-07-05T15:14:45.005Z,31.79
2018-07-05T15:15:44.988Z,32.63
2018-07-05T15:16:44.975Z,33.03
2018-07-05T15:17:44.968Z,32.32
2018-07-05T15:18:44.979Z,31.90
2018-07-05T15:19:44.946Z,31.64
2018-07-05T15:20:44.924Z,31.48
2018-07-05T15:21:44.908Z,31.42
2018-07-05T15:22:44.898Z,31.23
2018-07-05T15:23:44.883Z,30.99
2018-07-05T15:25:07.137Z,31.04
2018-07-05T15:26:42.758Z,30.45
2018-07-05T15:27:42.707Z,30.96
2018-07-05T15:29:46.106Z,32.26
2018-07-05T15:30:46.064Z,33.24
2018-07-05T15:32:41.998Z,32.80
2018-07-05T15:33:41.911Z,32.31
2018-07-05T15:35:49.812Z,31.51
2018-07-05T15:36:49.794Z,31.49
2018-07-05T15:38:47.715Z,30.74
2018-07-05T15:39:47.638Z,31.59
2018-07-05T15:42:00.585Z,31.57